Flight Track Log - Related Links

Times and Time Zones

All times are in EDT time to prevent confusion due to time zone crossing. See the SKW5586 flight status page for this flight to view local times or setup timezone preferences in your user account.

Time Position Orientation Groundspeed Altitude Reporting Facility
EDT Latitude Longitude Course Direction KTS MPH feet Rate Location/Type
Tue 02:22:14 AM 37.6167 -122.3500 80° East 160 184 1,300  Level Northern Cal TRACON
Tue 02:23:57 AM 37.5797 -122.2214 110° East 216 249 4,300 2,012 Climbing Oakland Center
Tue 02:24:58 AM 37.5569 -122.1264 107° East 256 295 6,800 2,508 Climbing Oakland Center
Tue 02:25:59 AM 37.5836 -122.0306 71° East 294 338 9,400 2,066 Climbing Oakland Center
Tue 02:26:00 AM 37.9672 -121.9637 78° East  Level FlightAware Approximate
Tue 02:27:00 AM 37.9837 -121.7973 80° East  Level FlightAware Approximate
Tue 02:27:00 AM 37.6294 -121.9297 60° Northeast 322 371 11,000  Level Oakland Center
Tue 02:28:01 AM 37.6836 -121.8175 59° Northeast 364 419 12,500 1,587 Climbing Oakland Center
Tue 02:29:01 AM 37.7433 -121.6964 58° Northeast 400 460 14,200 1,736 Climbing Oakland Center
Tue 02:30:02 AM 37.8031 -121.5717 59° Northeast 414 476 16,000 1,770 Climbing Oakland Center
Tue 02:31:03 AM 37.8658 -121.4414 59° Northeast 424 488 17,800 1,721 Climbing Oakland Center
Tue 02:32:04 AM 37.9275 -121.3117 59° Northeast 431 496 19,500 1,672 Climbing Oakland Center
Tue 02:33:05 AM 37.9617 -121.1664 73° East 441 507 21,200 1,537 Climbing Oakland Center
Tue 02:34:05 AM 37.9867 -121.0158 78° East 441 507 22,600 1,388 Climbing Oakland Center
Tue 02:35:06 AM 38.0108 -120.8622 79° East 447 514 24,000 1,525 Climbing Oakland Center
Tue 02:36:07 AM 38.0392 -120.6797 79° East 445 512 25,700 1,525 Climbing Oakland Center
Tue 02:37:08 AM 38.0631 -120.5239 79° East 448 516 27,100 1,328 Climbing Oakland Center
Tue 02:38:09 AM 38.0867 -120.3694 79° East 449 517 28,400 1,140 Climbing Oakland Center
Tue 02:39:09 AM 38.1114 -120.2114 79° East 456 525 29,400 992 Climbing Oakland Center
Tue 02:40:10 AM 38.1311 -120.0475 81° East 466 536 30,400 984 Climbing Oakland Center
Tue 02:41:11 AM 38.1411 -119.8822 86° East 470 541 31,400 984 Climbing Oakland Center
Tue 02:42:12 AM 38.1519 -119.7172 85° East 470 541 32,400 984 Climbing Oakland Center
Tue 02:43:13 AM 38.1636 -119.5514 85° East 472 543 33,400 992 Climbing Oakland Center
Tue 02:44:13 AM 38.1739 -119.3750 86° East 473 544 34,400 893 Climbing Oakland Center
Tue 02:45:14 AM 38.1864 -119.2064 85° East 479 551 35,200 787 Climbing Oakland Center
Tue 02:46:15 AM 38.1944 -119.0386 86° East 478 550 36,000 787 Climbing Oakland Center
Tue 02:47:16 AM 38.1994 -118.8700 88° East 479 551 36,800 496 Climbing Oakland Center
Tue 02:48:16 AM 38.2047 -118.7022 88° East 479 551 37,000 99 Climbing Oakland Center
Tue 02:49:17 AM 38.2086 -118.5294 88° East 489 563 37,000  Level Oakland Center
Tue 02:50:18 AM 38.2133 -118.3494 88° East 506 582 37,000  Level Oakland Center
Tue 02:51:19 AM 38.2192 -118.1681 88° East 515 593 37,000  Level Oakland Center
Tue 02:52:19 AM 38.2233 -117.9658 88° East 529 609 37,000  Level Oakland Center
Tue 02:53:20 AM 38.2275 -117.7794 88° East 528 608 37,000  Level Oakland Center
Tue 02:54:21 AM 38.2314 -117.5939 88° East 524 603 37,000  Level Oakland Center
Tue 02:55:21 AM 38.2350 -117.3897 89° East 522 601 37,000  Level Oakland Center
Tue 02:56:05 AM 38.2286 -117.2597 94° East 518 596 37,000  Level Salt Lake Center
Tue 02:57:06 AM 38.2058 -117.1017 100° East 535 616 37,000  Level Salt Lake Center
Tue 02:58:06 AM 38.1767 -116.9181 101° East 527 606 37,000  Level Salt Lake Center
Tue 02:59:07 AM 38.1489 -116.7372 101° East 521 600 37,000  Level Salt Lake Center
Tue 03:00:08 AM 38.1208 -116.5550 101° East 523 602 37,000  Level Salt Lake Center
Tue 03:01:09 AM 38.0925 -116.3714 101° East 527 606 37,000  Level Salt Lake Center
Tue 03:02:09 AM 38.0581 -116.1511 101° East 530 610 37,000  Level Salt Lake Center
Tue 03:03:10 AM 38.0281 -115.9689 102° East 528 608 37,000  Level Salt Lake Center
Tue 03:04:11 AM 37.9992 -115.7844 101° East 533 613 37,000  Level Salt Lake Center
Tue 03:05:11 AM 37.9686 -115.6006 102° East 533 613 37,000  Level Salt Lake Center
Tue 03:06:12 AM 37.9383 -115.4167 102° East 533 613 37,000  Level Salt Lake Center
Tue 03:07:13 AM 37.9083 -115.2333 102° East 532 612 37,000  Level Salt Lake Center
Tue 03:08:26 AM 37.8725 -115.0119 102° East 534 615 37,000  Level Los Angeles Center
Tue 03:09:27 AM 37.8442 -114.8489 102° East 532 612 37,000  Level Los Angeles Center
Tue 03:10:28 AM 37.8069 -114.6289 102° East 534 615 37,000  Level Los Angeles Center
Tue 03:11:29 AM 37.7756 -114.4475 102° East 531 611 37,000  Level Los Angeles Center
Tue 03:12:29 AM 37.7442 -114.2658 102° East 532 612 37,000  Level Los Angeles Center
Tue 03:13:30 AM 37.7111 -114.0828 103° East 534 615 37,000  Level Los Angeles Center
Tue 03:14:31 AM 37.6792 -113.9008 102° East 534 615 37,000  Level Los Angeles Center
Tue 03:15:32 AM 37.6461 -113.7186 103° East 534 615 37,000  Level Los Angeles Center
Tue 03:16:33 AM 37.6117 -113.5375 103° East 533 613 37,000  Level Los Angeles Center
Tue 03:17:33 AM 37.5786 -113.3558 103° East 535 616 37,000  Level Los Angeles Center
Tue 03:18:21 AM 37.5506 -113.2136 104° East 531 611 37,000  Level Salt Lake Center
Tue 03:19:22 AM 37.5164 -113.0364 104° East 529 609 37,000  Level Salt Lake Center
Tue 03:20:22 AM 37.4842 -112.8583 103° East 536 617 37,000  Level Salt Lake Center
Tue 03:21:36 AM 37.4386 -112.6086 103° East 536 617 37,000  Level Los Angeles Center
Tue 03:22:37 AM 37.4047 -112.4297 103° East 531 611 37,000  Level Los Angeles Center
Tue 03:23:38 AM 37.3703 -112.2506 104° East 530 610 37,000  Level Los Angeles Center
Tue 03:24:38 AM 37.3339 -112.0703 104° East 533 613 37,000  Level Los Angeles Center
Tue 03:25:39 AM 37.2989 -111.8894 104° East 535 616 37,000  Level Los Angeles Center
Tue 03:26:33 AM 37.2722 -111.7453 103° East 533 613 37,000  Level Denver Center
Tue 03:27:33 AM 37.2342 -111.5664 105° East 532 612 37,000  Level Denver Center
Tue 03:28:34 AM 37.1981 -111.3853 104° East 536 617 37,000  Level Denver Center
Tue 03:29:34 AM 37.1544 -111.1700 104° East 534 615 37,000  Level Denver Center
Tue 03:30:35 AM 37.1161 -110.9908 105° East 534 615 37,000  Level Denver Center
Tue 03:31:36 AM 37.0792 -110.8114 104° East 534 615 37,000  Level Denver Center
Tue 03:32:36 AM 37.0422 -110.6319 104° East 534 615 37,000  Level Denver Center
Tue 03:33:37 AM 37.0044 -110.4561 105° East 526 605 37,000  Level Denver Center
Tue 03:34:37 AM 36.9667 -110.2778 105° East 532 612 37,000  Level Denver Center
Tue 03:35:38 AM 36.9294 -110.1033 105° East 534 615 37,000  Level Denver Center
Tue 03:36:38 AM 36.8914 -109.9342 106° East 530 610 37,000  Level Denver Center
Tue 03:37:39 AM 36.8486 -109.7344 105° East 531 611 37,000  Level Denver Center
Tue 03:38:39 AM 36.8114 -109.5633 105° East 531 611 37,000  Level Denver Center
Tue 03:39:40 AM 36.7692 -109.3950 107° East 530 610 37,000  Level Denver Center
Tue 03:40:41 AM 36.7022 -109.2083 114° Southeast 527 606 37,000  Level Denver Center
Tue 03:41:41 AM 36.6453 -109.0481 114° Southeast 526 605 37,000  Level Denver Center
Tue 03:42:42 AM 36.5886 -108.8881 114° Southeast 525 604 37,000  Level Denver Center
Tue 03:43:42 AM 36.5322 -108.7261 113° Southeast 527 606 37,000  Level Denver Center
Tue 03:44:43 AM 36.4675 -108.5358 113° Southeast 530 610 37,000  Level Denver Center
Tue 03:45:43 AM 36.4217 -108.3703 109° East 528 608 37,000  Level Denver Center
Tue 03:46:44 AM 36.3825 -108.2000 106° East 531 611 37,000  Level Denver Center
Tue 03:47:29 AM 36.3519 -108.0614 105° East 528 608 37,000  Level Albuquerque Center
Tue 03:48:30 AM 36.3144 -107.8933 105° East 526 605 37,000  Level Albuquerque Center
Tue 03:49:30 AM 36.2756 -107.7267 106° East 525 604 37,000  Level Albuquerque Center
Tue 03:50:31 AM 36.2308 -107.5328 106° East 524 603 37,000  Level Albuquerque Center
Tue 03:51:31 AM 36.1928 -107.3681 106° East 520 598 37,000  Level Albuquerque Center
Tue 03:52:32 AM 36.1553 -107.2022 106° East 522 601 37,000  Level Albuquerque Center
Tue 03:53:32 AM 36.1122 -107.0183 106° East 520 598 37,000  Level Albuquerque Center
Tue 03:54:33 AM 36.0725 -106.8481 106° East 516 594 37,000  Level Albuquerque Center
Tue 03:55:33 AM 36.0331 -106.6783 106° East 514 592 37,000  Level Albuquerque Center
Tue 03:56:34 AM 35.9928 -106.5072 106° East 515 593 37,000  Level Albuquerque Center
Tue 03:57:34 AM 35.9525 -106.3383 106° East 513 590 37,000  Level Albuquerque Center
Tue 03:58:35 AM 35.9122 -106.1683 106° East 513 590 37,000  Level Albuquerque Center
Tue 03:59:35 AM 35.8692 -105.9967 107° East 518 596 37,000  Level Albuquerque Center
Tue 04:00:35 AM 35.8294 -105.8306 106° East 509 586 37,000  Level Albuquerque Center
Tue 04:01:36 AM 35.7889 -105.6661 107° East 502 578 37,000  Level Albuquerque Center
Tue 04:02:36 AM 35.7475 -105.5017 107° East 497 572 37,000  Level Albuquerque Center
Tue 04:03:37 AM 35.7075 -105.3394 107° East 491 565 37,000  Level Albuquerque Center
Tue 04:04:37 AM 35.6642 -105.1767 108° East 495 570 37,000  Level Albuquerque Center
Tue 04:05:37 AM 35.6208 -105.0119 108° East 500 575 37,000  Level Albuquerque Center
Tue 04:06:38 AM 35.5794 -104.8481 107° East 498 573 37,000  Level Albuquerque Center
Tue 04:07:38 AM 35.5378 -104.6831 107° East 500 575 37,000  Level Albuquerque Center
Tue 04:08:39 AM 35.4953 -104.5189 108° East 499 574 37,000  Level Albuquerque Center
Tue 04:09:39 AM 35.4528 -104.3517 107° East 504 580 37,000  Level Albuquerque Center
Tue 04:10:39 AM 35.4100 -104.1831 107° East 504 580 37,000  Level Albuquerque Center
Tue 04:11:40 AM 35.3736 -104.0397 107° East 511 588 37,000  Level Albuquerque Center
Tue 04:12:40 AM 35.3283 -103.8731 108° East 507 583 37,000  Level Albuquerque Center
Tue 04:13:40 AM 35.2842 -103.7089 109° East 503 579 37,000  Level Albuquerque Center
Tue 04:14:00 AM 35.2745 -103.6681 108° East  Level FlightAware Approximate
Tue 04:14:41 AM 35.2403 -103.5456 108° East 501 577 37,000  Level Albuquerque Center
Tue 04:15:41 AM 35.1961 -103.3825 108° East 500 575 37,000  Level Albuquerque Center
Tue 04:16:42 AM 35.1514 -103.2203 109° East 499 574 37,000  Level Albuquerque Center
Tue 04:17:42 AM 35.1069 -103.0581 108° East 499 574 37,000  Level Albuquerque Center
Tue 04:18:42 AM 35.0569 -102.8797 109° East 502 578 37,000  Level Albuquerque Center
Tue 04:19:43 AM 35.0167 -102.7314 108° East 504 580 37,000  Level Albuquerque Center
Tue 04:20:43 AM 34.9683 -102.5567 109° East 505 581 37,000  Level Albuquerque Center
Tue 04:21:00 AM 34.9859 -102.5965 109° East  Level FlightAware Approximate
Tue 04:21:44 AM 34.9225 -102.3969 109° East 504 580 37,000  Level Albuquerque Center
Tue 04:22:00 AM 34.9431 -102.4444 109° East  Level FlightAware Approximate
Tue 04:22:44 AM 34.8778 -102.2378 109° East 502 578 37,000  Level Albuquerque Center
Tue 04:23:00 AM 34.9002 -102.2924 109° East  Level FlightAware Approximate
Tue 04:23:44 AM 34.8331 -102.0786 109° East 501 577 37,000  Level Albuquerque Center
Tue 04:24:45 AM 34.7872 -101.9189 109° East 503 579 37,000  Level Albuquerque Center
Tue 04:25:45 AM 34.7425 -101.7597 109° East 504 580 37,000  Level Albuquerque Center
Tue 04:26:45 AM 34.6975 -101.5997 109° East 505 581 37,000  Level Albuquerque Center
Tue 04:27:46 AM 34.6514 -101.4389 109° East 507 583 37,000  Level Albuquerque Center
Tue 04:28:46 AM 34.6050 -101.2797 109° East 505 581 37,000  Level Albuquerque Center
Tue 04:29:46 AM 34.5589 -101.1208 109° East 505 581 37,000  Level Albuquerque Center
Tue 04:30:47 AM 34.5131 -100.9631 109° East 500 575 37,000  Level Albuquerque Center
Tue 04:31:47 AM 34.4664 -100.8044 110° East 501 577 37,000  Level Albuquerque Center
Tue 04:32:48 AM 34.4189 -100.6456 110° East 503 579 37,000  Level Albuquerque Center
Tue 04:33:48 AM 34.3717 -100.4894 110° East 499 574 37,000  Level Albuquerque Center
Tue 04:34:48 AM 34.3247 -100.3311 110° East 500 575 37,000  Level Albuquerque Center
Tue 04:35:48 AM 34.2708 -100.1767 113° Southeast 500 575 37,000  Level Albuquerque Center
Tue 04:36:49 AM 34.2047 -100.0028 115° Southeast 504 580 37,000  Level Albuquerque Center
Tue 04:37:49 AM 34.1464 -99.8475 114° Southeast 507 583 37,000  Level Albuquerque Center
Tue 04:38:49 AM 34.0892 -99.6950 114° Southeast 503 579 37,000  Level Albuquerque Center
Tue 04:40:00 AM 34.0676 -99.5085 98° East  Level FlightAware Approximate
Tue 04:41:09 AM 33.9600 -99.3492 98° East 504 580 37,000  Level Fort Worth Center
Tue 04:42:09 AM 33.8958 -99.1825 115° Southeast 504 580 36,100 -1,450 Descending Fort Worth Center
Tue 04:43:09 AM 33.8372 -99.0289 115° Southeast 504 580 34,100 -2,050 Descending Fort Worth Center
Tue 04:44:09 AM 33.7808 -98.8803 115° Southeast 499 574 32,000 -2,050 Descending Fort Worth Center
Tue 04:45:09 AM 33.7197 -98.7269 116° Southeast 499 574 30,000 -2,000 Descending Fort Worth Center
Tue 04:46:09 AM 33.6650 -98.5689 113° Southeast 506 582 28,000 -2,000 Descending Fort Worth Center
Tue 04:47:09 AM 33.6122 -98.4136 112° Southeast 506 582 26,000 -2,050 Descending Fort Worth Center
Tue 04:48:09 AM 33.5589 -98.2661 113° Southeast 493 567 23,900 -2,050 Descending Fort Worth Center
Tue 04:49:09 AM 33.5097 -98.1186 112° Southeast 481 554 21,900 -2,199 Descending Fort Worth Center
Tue 04:50:50 AM 33.4333 -97.8833 111° Southeast 428 493 18,000 -2,555 Descending Dallas / Fort Worth TRACON
Tue 04:51:44 AM 33.3833 -97.7667 117° Southeast 429 494 15,300 -2,895 Descending Dallas / Fort Worth TRACON
Tue 04:52:44 AM 33.3167 -97.6500 124° Southeast 407 468 12,500 -2,105 Descending Dallas / Fort Worth TRACON
Tue 04:53:38 AM 33.2833 -97.5500 112° Southeast 368 423 11,300 -1,053 Descending Dallas / Fort Worth TRACON
Tue 04:54:38 AM 33.2333 -97.4500 121° Southeast 294 338 10,500 -1,250 Descending Dallas / Fort Worth TRACON
Tue 04:55:38 AM 33.2000 -97.3667 116° Southeast 290 334 8,800 -1,700 Descending Dallas / Fort Worth TRACON
Tue 04:56:38 AM 33.1667 -97.2833 116° Southeast 275 316 7,100 -1,650 Descending Dallas / Fort Worth TRACON
Tue 04:57:38 AM 33.1167 -97.2000 126° Southeast 265 305 5,500 -1,350 Descending Dallas / Fort Worth TRACON
Tue 04:58:38 AM 33.0833 -97.1333 121° Southeast 240 276 4,400 -1,000 Descending Dallas / Fort Worth TRACON
Tue 04:59:38 AM 33.0500 -97.0833 128° Southeast 202 232 3,500 -900 Descending Dallas / Fort Worth TRACON
Tue 05:00:38 AM 33.0167 -97.0333 128° Southeast 168 193 2,600 -900 Descending Dallas / Fort Worth TRACON

Login

Don't have an account? Register now (free) for customized features, flight alerts, and more!